createdAt,value
2018-05-27T00:00:53.792Z,66.77
2018-05-27T00:03:56.290Z,66.76
2018-05-27T00:06:58.754Z,67.42
2018-05-27T00:10:01.263Z,67.44
2018-05-27T00:13:03.852Z,66.72
2018-05-27T00:16:07.507Z,66.91
2018-05-27T00:19:10.713Z,67.36
2018-05-27T00:22:13.245Z,67.78
2018-05-27T00:25:15.726Z,68.02
2018-05-27T00:28:19.186Z,68.49
2018-05-27T00:31:21.668Z,68.84
2018-05-27T00:34:24.168Z,69.17
2018-05-27T00:37:26.638Z,69.28
2018-05-27T00:40:29.201Z,69.58
2018-05-27T00:43:31.742Z,70.03
2018-05-27T00:46:34.227Z,70.07
2018-05-27T00:49:36.711Z,70.24
2018-05-27T00:52:39.278Z,70.35
2018-05-27T00:55:41.715Z,70.29
2018-05-27T00:58:44.195Z,70.74
2018-05-27T01:01:46.640Z,70.81
2018-05-27T01:04:49.143Z,71.19
2018-05-27T01:07:51.657Z,70.95
2018-05-27T01:10:54.135Z,71.06
2018-05-27T01:13:56.744Z,71.54
2018-05-27T01:16:59.332Z,71.78
2018-05-27T01:20:01.812Z,72.09
2018-05-27T01:23:04.327Z,72.54
2018-05-27T01:26:06.809Z,72.49
2018-05-27T01:29:09.264Z,72.93
2018-05-27T01:32:11.751Z,73.30
2018-05-27T01:35:14.196Z,73.39
2018-05-27T01:38:16.782Z,73.30
2018-05-27T01:41:19.260Z,73.96
2018-05-27T01:44:21.722Z,74.69
2018-05-27T01:47:24.197Z,74.93
2018-05-27T01:50:26.683Z,75.11
2018-05-27T01:53:29.246Z,75.93
2018-05-27T01:56:31.778Z,76.32
2018-05-27T01:59:34.339Z,76.70
2018-05-27T02:02:36.827Z,77.09
2018-05-27T02:05:39.304Z,77.26
2018-05-27T02:08:41.743Z,77.42
2018-05-27T02:11:44.218Z,77.62
2018-05-27T02:14:46.652Z,77.59
2018-05-27T02:17:49.133Z,77.79
2018-05-27T02:20:51.583Z,78.05
2018-05-27T02:23:54.078Z,78.45
2018-05-27T02:26:56.523Z,78.34
2018-05-27T02:29:58.996Z,79.06
2018-05-27T02:33:01.435Z,79.04
2018-05-27T02:36:03.912Z,79.14
2018-05-27T02:39:06.390Z,79.71
2018-05-27T02:42:08.920Z,79.26
2018-05-27T02:45:11.388Z,79.52
2018-05-27T02:48:13.845Z,79.40
2018-05-27T02:51:16.319Z,79.80
2018-05-27T02:54:18.794Z,79.98
2018-05-27T02:57:21.302Z,80.16
2018-05-27T03:00:23.787Z,79.94
2018-05-27T03:03:26.224Z,79.82
2018-05-27T03:06:28.710Z,80.28
2018-05-27T03:09:31.248Z,80.76
2018-05-27T03:12:33.734Z,80.87
2018-05-27T03:15:36.248Z,81.14
2018-05-27T03:18:38.720Z,80.85
2018-05-27T03:21:41.150Z,80.69
2018-05-27T03:24:43.675Z,80.95
2018-05-27T03:27:46.110Z,80.61
2018-05-27T03:30:48.603Z,80.90
2018-05-27T03:33:51.108Z,81.06
2018-05-27T03:36:53.597Z,81.23
2018-05-27T03:39:56.287Z,81.20
2018-05-27T03:42:58.750Z,81.30
2018-05-27T03:46:01.282Z,80.37
2018-05-27T03:49:03.757Z,78.43
2018-05-27T03:52:06.229Z,77.12
2018-05-27T03:55:08.769Z,75.72
2018-05-27T03:58:11.239Z,74.92
2018-05-27T04:01:14.667Z,74.66
2018-05-27T04:04:28.714Z,76.18
2018-05-27T04:07:42.890Z,77.22
2018-05-27T04:10:45.344Z,78.45
2018-05-27T04:13:47.826Z,79.01
2018-05-27T04:16:50.286Z,80.02
2018-05-27T04:19:52.829Z,80.20
2018-05-27T04:22:55.393Z,79.78
2018-05-27T04:25:57.857Z,79.81
2018-05-27T04:29:00.372Z,79.42
2018-05-27T04:32:02.871Z,78.36
2018-05-27T04:35:05.299Z,78.52
2018-05-27T04:38:07.764Z,78.73
2018-05-27T04:41:10.243Z,77.27
2018-05-27T04:44:12.694Z,75.17
2018-05-27T04:47:15.183Z,72.67
2018-05-27T04:50:17.674Z,69.84
2018-05-27T04:53:20.130Z,68.60
2018-05-27T04:56:22.621Z,61.89
2018-05-27T04:59:25.176Z,59.18
2018-05-27T05:02:27.664Z,57.55
2018-05-27T05:05:30.175Z,54.65
2018-05-27T05:08:32.658Z,54.90
2018-05-27T05:11:35.099Z,52.78
2018-05-27T05:14:37.625Z,50.61
2018-05-27T05:17:40.119Z,51.42
2018-05-27T05:20:42.625Z,52.89
2018-05-27T05:23:45.127Z,52.40
2018-05-27T05:26:47.570Z,53.24
2018-05-27T05:29:50.100Z,48.92
2018-05-27T05:32:52.618Z,50.60
2018-05-27T05:35:55.055Z,53.28
2018-05-27T05:38:57.519Z,55.11
2018-05-27T05:42:00.083Z,56.43
2018-05-27T05:45:02.547Z,53.49
2018-05-27T05:48:05.082Z,51.85
2018-05-27T05:51:07.674Z,50.19
2018-05-27T05:54:10.215Z,50.14
2018-05-27T05:57:12.715Z,48.06
2018-05-27T06:00:15.192Z,46.05
2018-05-27T06:03:17.685Z,48.78
2018-05-27T06:06:20.203Z,48.60
2018-05-27T06:09:22.642Z,46.99
2018-05-27T06:12:25.151Z,47.83
2018-05-27T06:15:27.656Z,48.15
2018-05-27T06:18:30.160Z,47.41
2018-05-27T06:21:32.620Z,47.57
2018-05-27T06:24:35.103Z,48.64
2018-05-27T06:27:37.707Z,47.34
2018-05-27T06:30:40.222Z,48.80
2018-05-27T06:33:42.697Z,48.06
2018-05-27T06:36:45.137Z,48.14
2018-05-27T06:39:47.644Z,46.32
2018-05-27T06:42:50.092Z,46.51
2018-05-27T06:45:52.672Z,45.74
2018-05-27T06:48:55.152Z,46.14
2018-05-27T06:51:57.641Z,46.52
2018-05-27T06:55:00.100Z,50.00
2018-05-27T06:58:02.615Z,54.27
2018-05-27T07:01:05.052Z,56.13
2018-05-27T07:04:07.553Z,57.89
2018-05-27T07:07:10.132Z,60.45
2018-05-27T07:10:12.630Z,60.45
2018-05-27T07:13:15.111Z,61.81
2018-05-27T07:16:17.571Z,61.18
2018-05-27T07:19:20.046Z,62.53
2018-05-27T07:22:22.513Z,61.22
2018-05-27T07:25:24.988Z,61.23
2018-05-27T07:28:27.471Z,61.70
2018-05-27T07:31:29.975Z,63.34
2018-05-27T07:34:32.484Z,63.66
2018-05-27T07:37:35.012Z,62.53
2018-05-27T07:40:37.517Z,61.60
2018-05-27T07:43:40.042Z,63.14
2018-05-27T07:46:42.563Z,61.61
2018-05-27T07:49:45.011Z,62.38
2018-05-27T07:52:47.545Z,62.44
2018-05-27T07:55:50.028Z,64.30
2018-05-27T07:58:52.553Z,62.15
2018-05-27T08:01:55.108Z,62.19
2018-05-27T08:04:57.653Z,62.19
2018-05-27T08:08:00.158Z,62.78
2018-05-27T08:11:02.718Z,63.08
2018-05-27T08:14:05.250Z,63.95
2018-05-27T08:17:07.765Z,63.85
2018-05-27T08:20:10.244Z,62.97
2018-05-27T08:23:12.743Z,62.23
2018-05-27T08:26:15.337Z,64.01
2018-05-27T08:29:17.851Z,60.89
2018-05-27T08:32:20.325Z,61.36
2018-05-27T08:35:22.804Z,59.81
2018-05-27T08:38:25.364Z,59.64
2018-05-27T08:41:27.868Z,60.89
2018-05-27T08:44:30.434Z,61.94
2018-05-27T08:47:33.033Z,60.18
2018-05-27T08:50:35.437Z,60.73
2018-05-27T08:53:37.941Z,62.83
2018-05-27T08:56:40.533Z,61.79
2018-05-27T08:59:43.158Z,61.01
2018-05-27T09:02:45.660Z,61.63
2018-05-27T09:05:48.173Z,59.53
2018-05-27T09:08:50.661Z,60.11
2018-05-27T09:11:53.228Z,59.44
2018-05-27T09:14:55.692Z,58.80
2018-05-27T09:17:58.217Z,59.99
2018-05-27T09:21:00.799Z,57.51
2018-05-27T09:24:03.448Z,57.87
2018-05-27T09:27:05.912Z,58.59
2018-05-27T09:30:08.409Z,58.00
2018-05-27T09:33:10.912Z,56.87
2018-05-27T09:36:13.463Z,56.90
2018-05-27T09:39:16.011Z,56.83
2018-05-27T09:42:18.427Z,56.71
2018-05-27T09:45:21.073Z,56.58
2018-05-27T09:48:24.648Z,56.73
2018-05-27T09:51:27.253Z,56.84
2018-05-27T09:54:29.639Z,56.91
2018-05-27T09:57:32.257Z,54.82
2018-05-27T10:00:34.753Z,56.28
2018-05-27T10:03:37.257Z,56.14
2018-05-27T10:06:39.772Z,54.33
2018-05-27T10:09:42.275Z,55.57
2018-05-27T10:12:44.842Z,55.41
2018-05-27T10:15:47.332Z,56.28
2018-05-27T10:18:49.900Z,53.68
2018-05-27T10:21:52.352Z,54.09
2018-05-27T10:24:54.945Z,54.42
2018-05-27T10:27:57.440Z,54.68
2018-05-27T10:31:00.676Z,53.52
2018-05-27T10:34:03.240Z,54.61
2018-05-27T10:37:05.743Z,54.07
2018-05-27T10:40:08.173Z,49.18
2018-05-27T10:43:10.749Z,46.87
2018-05-27T10:46:13.308Z,50.21
2018-05-27T10:49:15.893Z,50.63
2018-05-27T10:52:18.495Z,50.05
2018-05-27T10:55:21.078Z,51.95
2018-05-27T10:58:23.648Z,50.93
2018-05-27T11:01:26.113Z,52.62
2018-05-27T11:04:28.619Z,48.86
2018-05-27T11:07:31.104Z,49.80
2018-05-27T11:10:33.620Z,46.56
2018-05-27T11:13:36.135Z,47.91
2018-05-27T11:16:38.713Z,48.90
2018-05-27T11:19:41.165Z,50.36
2018-05-27T11:22:43.738Z,50.81
2018-05-27T11:25:46.246Z,51.88
2018-05-27T11:28:48.726Z,49.78
2018-05-27T11:31:51.322Z,47.38
2018-05-27T11:34:53.830Z,49.99
2018-05-27T11:37:56.374Z,46.96
2018-05-27T11:40:58.835Z,45.99
2018-05-27T11:44:01.379Z,47.99
2018-05-27T11:47:04.007Z,46.97
2018-05-27T11:50:06.505Z,47.96
2018-05-27T11:53:09.151Z,45.56
2018-05-27T11:56:11.681Z,47.56
2018-05-27T11:59:14.385Z,45.04
2018-05-27T12:02:16.838Z,45.10
2018-05-27T12:05:19.434Z,43.58
2018-05-27T12:08:21.931Z,43.67
2018-05-27T12:11:24.440Z,43.80
2018-05-27T12:14:27.002Z,43.50
2018-05-27T12:17:29.509Z,44.46
2018-05-27T12:20:32.016Z,44.30
2018-05-27T12:23:34.696Z,46.32
2018-05-27T12:26:37.249Z,45.14
2018-05-27T12:29:39.768Z,44.60
2018-05-27T12:32:42.272Z,46.26
2018-05-27T12:35:44.720Z,45.05
2018-05-27T12:38:47.303Z,44.73
2018-05-27T12:41:49.801Z,44.33
2018-05-27T12:44:52.333Z,43.63
2018-05-27T12:47:54.791Z,43.55
2018-05-27T12:50:57.345Z,43.87
2018-05-27T12:53:59.862Z,40.70
2018-05-27T12:57:02.363Z,41.02
2018-05-27T13:00:04.925Z,41.63
2018-05-27T13:03:07.455Z,41.88
2018-05-27T13:06:09.910Z,40.17
2018-05-27T13:09:12.436Z,40.55
2018-05-27T13:12:14.975Z,39.04
2018-05-27T13:15:17.467Z,42.74
2018-05-27T13:18:19.937Z,44.00
2018-05-27T13:21:22.456Z,42.45
2018-05-27T13:24:25.125Z,42.78
2018-05-27T13:27:27.591Z,42.45
2018-05-27T13:30:30.072Z,44.20
2018-05-27T13:33:32.537Z,43.82
2018-05-27T13:36:35.068Z,43.49
2018-05-27T13:39:37.537Z,45.09
2018-05-27T13:42:40.031Z,43.36
2018-05-27T13:45:42.497Z,43.93
2018-05-27T13:48:45.087Z,41.84
2018-05-27T13:51:47.675Z,42.87
2018-05-27T13:54:50.178Z,43.27
2018-05-27T13:57:52.650Z,42.60
2018-05-27T14:00:55.191Z,43.19
2018-05-27T14:03:57.696Z,43.27
2018-05-27T14:07:00.218Z,42.10
2018-05-27T14:10:02.766Z,44.67
2018-05-27T14:13:05.267Z,43.38
2018-05-27T14:16:07.749Z,41.65
2018-05-27T14:19:10.244Z,41.31
2018-05-27T14:22:12.725Z,41.46
2018-05-27T14:25:15.228Z,41.94
2018-05-27T14:28:17.716Z,42.90
2018-05-27T14:31:20.211Z,43.20
2018-05-27T14:34:22.708Z,41.53
2018-05-27T14:37:25.245Z,41.87
2018-05-27T14:40:27.732Z,42.14
2018-05-27T14:43:30.247Z,41.72
2018-05-27T14:46:32.741Z,43.29
2018-05-27T14:49:35.252Z,43.90
2018-05-27T14:52:37.726Z,45.45
2018-05-27T14:55:40.232Z,43.71
2018-05-27T14:58:42.751Z,44.48
2018-05-27T15:01:45.337Z,43.62
2018-05-27T15:04:47.858Z,44.19
2018-05-27T15:07:50.418Z,45.25
2018-05-27T15:10:52.978Z,45.32
2018-05-27T15:13:55.466Z,45.22
2018-05-27T15:16:57.978Z,45.09
2018-05-27T15:20:00.483Z,44.87
2018-05-27T15:23:02.976Z,45.72
2018-05-27T15:26:05.653Z,44.77
2018-05-27T15:29:08.166Z,45.90
2018-05-27T15:32:10.689Z,44.92
2018-05-27T15:35:13.229Z,44.90
2018-05-27T15:38:15.689Z,44.19
2018-05-27T15:41:18.198Z,44.47
2018-05-27T15:44:20.688Z,43.38
2018-05-27T15:47:23.197Z,44.69
2018-05-27T15:50:25.707Z,43.37
2018-05-27T15:53:28.202Z,44.99
2018-05-27T15:56:30.708Z,43.39
2018-05-27T15:59:33.190Z,43.59
2018-05-27T16:02:35.745Z,43.65
2018-05-27T16:05:38.350Z,44.25
2018-05-27T16:08:40.858Z,44.83
2018-05-27T16:11:43.343Z,45.25
2018-05-27T16:14:45.849Z,45.01
2018-05-27T16:17:48.359Z,45.43
2018-05-27T16:20:50.822Z,47.26
2018-05-27T16:23:53.347Z,48.28
2018-05-27T16:26:55.877Z,48.36
2018-05-27T16:29:58.413Z,48.18
2018-05-27T16:33:00.901Z,48.47
2018-05-27T16:36:03.401Z,47.60
2018-05-27T16:39:05.869Z,47.64
2018-05-27T16:42:08.424Z,47.88
2018-05-27T16:45:10.932Z,47.52
2018-05-27T16:48:13.386Z,48.16
2018-05-27T16:51:15.869Z,48.30
2018-05-27T16:54:18.348Z,48.57
2018-05-27T16:57:20.835Z,48.88
2018-05-27T17:00:23.303Z,50.50
2018-05-27T17:03:25.787Z,50.14
2018-05-27T17:06:28.244Z,50.98
2018-05-27T17:09:30.789Z,51.72
2018-05-27T17:12:33.382Z,53.93
2018-05-27T17:15:35.923Z,55.03
2018-05-27T17:18:38.407Z,55.74
2018-05-27T17:21:40.893Z,56.70
2018-05-27T17:24:43.382Z,56.63
2018-05-27T17:27:45.972Z,56.89
2018-05-27T17:30:48.440Z,58.06
2018-05-27T17:33:51.339Z,59.41
2018-05-27T17:36:53.813Z,60.56
2018-05-27T17:39:56.279Z,61.34
2018-05-27T17:42:58.785Z,64.32
2018-05-27T17:46:01.288Z,66.58
2018-05-27T17:49:03.805Z,68.58
2018-05-27T17:52:06.455Z,69.40
2018-05-27T17:55:08.952Z,70.64
2018-05-27T17:58:11.488Z,71.01
2018-05-27T18:01:13.955Z,71.68
2018-05-27T18:04:16.470Z,71.60
2018-05-27T18:07:19.050Z,71.46
2018-05-27T18:10:21.595Z,71.45
2018-05-27T18:13:24.109Z,71.48
2018-05-27T18:16:26.654Z,71.36
2018-05-27T18:19:29.148Z,71.27
2018-05-27T18:22:31.683Z,69.99
2018-05-27T18:25:34.850Z,69.42
2018-05-27T18:28:37.345Z,68.76
2018-05-27T18:31:39.982Z,68.70
2018-05-27T18:34:42.510Z,68.17
2018-05-27T18:37:45.063Z,66.50
2018-05-27T18:40:47.586Z,66.22
2018-05-27T18:43:50.731Z,67.04
2018-05-27T18:46:53.299Z,63.30
2018-05-27T18:49:55.793Z,64.90
2018-05-27T18:52:58.433Z,64.59
2018-05-27T18:56:00.919Z,65.87
2018-05-27T18:59:03.419Z,65.56
2018-05-27T19:02:05.966Z,65.90
2018-05-27T19:05:08.515Z,64.92
2018-05-27T19:08:11.045Z,65.73
2018-05-27T19:11:13.549Z,65.85
2018-05-27T19:14:16.031Z,66.79
2018-05-27T19:17:18.572Z,66.72
2018-05-27T19:20:21.090Z,66.94
2018-05-27T19:23:23.641Z,67.56
2018-05-27T19:26:26.183Z,67.44
2018-05-27T19:29:28.690Z,68.15
2018-05-27T19:32:31.206Z,68.27
2018-05-27T19:35:33.721Z,68.86
2018-05-27T19:38:36.256Z,66.38
2018-05-27T19:41:38.791Z,64.85
2018-05-27T19:44:41.323Z,65.04
2018-05-27T19:47:43.941Z,67.10
2018-05-27T19:50:46.444Z,63.82
2018-05-27T19:53:48.962Z,64.25
2018-05-27T19:56:51.426Z,64.05
2018-05-27T19:59:53.945Z,62.89
2018-05-27T20:02:56.435Z,62.28
2018-05-27T20:05:58.940Z,63.11
2018-05-27T20:09:01.487Z,64.24
2018-05-27T20:12:03.954Z,65.27
2018-05-27T20:15:06.552Z,66.94
2018-05-27T20:18:09.146Z,68.19
2018-05-27T20:21:11.684Z,68.89
2018-05-27T20:24:15.215Z,68.89
2018-05-27T20:27:17.756Z,69.39
2018-05-27T20:30:20.224Z,69.78
2018-05-27T20:33:22.735Z,70.16
2018-05-27T20:36:25.769Z,70.31
2018-05-27T20:39:28.430Z,70.53
2018-05-27T20:42:30.996Z,70.86
2018-05-27T20:45:33.549Z,71.21
2018-05-27T20:48:36.039Z,71.27
2018-05-27T20:51:38.557Z,71.29
2018-05-27T20:54:41.040Z,70.79
2018-05-27T20:57:43.704Z,71.36
2018-05-27T21:00:46.222Z,70.90
2018-05-27T21:03:48.744Z,70.82
2018-05-27T21:06:51.240Z,70.90
2018-05-27T21:09:53.840Z,70.36
2018-05-27T21:12:56.629Z,69.99
2018-05-27T21:15:59.124Z,70.73
2018-05-27T21:19:01.706Z,71.42
2018-05-27T21:22:04.203Z,71.87
2018-05-27T21:25:06.749Z,72.25
2018-05-27T21:28:09.263Z,73.27
2018-05-27T21:31:11.745Z,73.38
2018-05-27T21:34:14.205Z,73.26
2018-05-27T21:37:16.675Z,73.22
2018-05-27T21:40:19.276Z,73.22
2018-05-27T21:43:21.868Z,73.32
2018-05-27T21:46:24.361Z,73.14
2018-05-27T21:49:26.853Z,72.61
2018-05-27T21:52:29.331Z,73.33
2018-05-27T21:55:31.891Z,73.85
2018-05-27T21:58:34.380Z,74.22
2018-05-27T22:01:36.895Z,75.17
2018-05-27T22:04:39.390Z,75.08
2018-05-27T22:07:42.035Z,74.68
2018-05-27T22:10:44.696Z,74.62
2018-05-27T22:13:47.176Z,74.82
2018-05-27T22:16:49.730Z,74.87
2018-05-27T22:19:52.173Z,74.57
2018-05-27T22:22:54.690Z,74.33
2018-05-27T22:25:57.291Z,73.99
2018-05-27T22:28:59.791Z,72.65
2018-05-27T22:32:02.330Z,72.53
2018-05-27T22:35:04.820Z,71.31
2018-05-27T22:38:07.334Z,71.31
2018-05-27T22:41:09.820Z,71.44
2018-05-27T22:44:12.371Z,70.19
2018-05-27T22:47:14.866Z,70.76
2018-05-27T22:50:17.312Z,70.21
2018-05-27T22:53:19.786Z,69.53
2018-05-27T22:56:22.320Z,68.67
2018-05-27T22:59:24.816Z,68.29
2018-05-27T23:02:27.287Z,67.68
2018-05-27T23:05:29.816Z,67.97
2018-05-27T23:08:32.345Z,68.80
2018-05-27T23:11:34.830Z,68.59
2018-05-27T23:14:37.321Z,68.30
2018-05-27T23:17:39.861Z,68.86
2018-05-27T23:20:42.380Z,68.80
2018-05-27T23:23:44.891Z,68.84
2018-05-27T23:26:47.398Z,69.00
2018-05-27T23:29:49.885Z,68.87
2018-05-27T23:32:52.348Z,69.01
2018-05-27T23:35:54.871Z,68.36
2018-05-27T23:38:57.327Z,67.89
2018-05-27T23:41:59.825Z,67.97
2018-05-27T23:45:02.318Z,68.27
2018-05-27T23:48:04.811Z,68.09
2018-05-27T23:51:07.273Z,68.78
2018-05-27T23:54:09.757Z,69.18
2018-05-27T23:57:12.206Z,69.83
